Excelsior, Georgia
Current Conditions -  °F | °C
As of 4:35 PM on Friday 28 Nov 2014 (Local Time) from KTBR Reporting Station
Clear Clear  
Wind Chill: 49°   Ceiling: Unl
Heat Index: 49°   Visibility: 10mi
Dew Point: 28°   Wind: 0mph
Humidity: 45%   Direction: NA
Pressure: 30.32"   Gusts: NA
Location:  32.4031°N, 82.0735°W
Report Text: KTBR 282135Z AUTO 00000KT 10SM CLR 10/M02 A3032 RMK AO2 T00951020
Loading
Personal Weather Stations






























Interactive Weather Map New forecast layout! Learn more

10-Day Weather Forecast

Advertisements
Track Severe Weather on mobile